High temp

Not for real navigation. The accuracy of this data is not assured See disclaimer for more information



ICAO NAME COUNTRY WIND Kt GUST Kt VIS m TEMP/DEW C BARO METAR
OIAG Omidieh Iran 14 0 9999 46/10 29.56 OIAG 191300Z 32014KT CAVOK 46/10 Q1001
OICM 6 0 9999 46/13 29.59 OICM 191300Z 26006KT CAVOK 46/13 Q1002
OKAS 12 18 9999 45/3 29.65 OKAS 191255Z 33012G18KT 9999 CAVOK 45/03 A2965 RMK AO2A SLP034 WND DATA ESTMD T04450031
OIAW Ahwaz Iran 6 0 9999 45/10 29.53 OIAW 191330Z 27006KT CAVOK 45/10 Q1000
ORBD 8 0 9999 45/7 29.63 ORBD 191255Z 25008KT 210V280 9000 HZ CAVOK 45/07 A2963 RMK WND DATA ALSTG ESTMD

Show more